sensor_id;sensor_type;location;lat;lon;timestamp;P1;durP1;ratioP1;P2;durP2;ratioP2
32186;SDS011;18686;53.084;8.872;2023-03-01T00:01:34;10.65;;;8.82;;
32186;SDS011;18686;53.084;8.872;2023-03-01T00:04:02;9.55;;;8.23;;
32186;SDS011;18686;53.084;8.872;2023-03-01T00:06:50;10.00;;;8.77;;
32186;SDS011;18686;53.084;8.872;2023-03-01T00:09:19;12.05;;;9.73;;
32186;SDS011;18686;53.084;8.872;2023-03-01T00:11:47;11.68;;;9.55;;
32186;SDS011;18686;53.084;8.872;2023-03-01T00:14:16;12.38;;;9.75;;
32186;SDS011;18686;53.084;8.872;2023-03-01T00:16:45;13.15;;;9.60;;
32186;SDS011;18686;53.084;8.872;2023-03-01T00:19:15;13.10;;;10.25;;
32186;SDS011;18686;53.084;8.872;2023-03-01T00:21:44;11.95;;;10.18;;
32186;SDS011;18686;53.084;8.872;2023-03-01T00:24:14;13.77;;;10.98;;
32186;SDS011;18686;53.084;8.872;2023-03-01T00:26:43;14.40;;;10.68;;
32186;SDS011;18686;53.084;8.872;2023-03-01T00:29:12;14.73;;;11.07;;
32186;SDS011;18686;53.084;8.872;2023-03-01T00:31:40;13.98;;;10.60;;
32186;SDS011;18686;53.084;8.872;2023-03-01T00:34:09;13.00;;;10.02;;
32186;SDS011;18686;53.084;8.872;2023-03-01T00:36:37;12.32;;;10.27;;
32186;SDS011;18686;53.084;8.872;2023-03-01T00:39:07;11.18;;;9.98;;
32186;SDS011;18686;53.084;8.872;2023-03-01T00:41:40;12.73;;;9.85;;
32186;SDS011;18686;53.084;8.872;2023-03-01T00:44:09;13.70;;;10.65;;
32186;SDS011;18686;53.084;8.872;2023-03-01T00:46:38;11.13;;;9.63;;
32186;SDS011;18686;53.084;8.872;2023-03-01T00:49:06;12.85;;;10.05;;
32186;SDS011;18686;53.084;8.872;2023-03-01T00:51:35;11.18;;;9.35;;
32186;SDS011;18686;53.084;8.872;2023-03-01T00:54:03;11.88;;;9.45;;
32186;SDS011;18686;53.084;8.872;2023-03-01T00:56:31;11.60;;;9.45;;
32186;SDS011;18686;53.084;8.872;2023-03-01T00:59:01;10.82;;;9.10;;
32186;SDS011;18686;53.084;8.872;2023-03-01T01:01:30;12.00;;;9.50;;
32186;SDS011;18686;53.084;8.872;2023-03-01T01:03:59;12.43;;;9.77;;
32186;SDS011;18686;53.084;8.872;2023-03-01T01:06:31;10.70;;;9.05;;
32186;SDS011;18686;53.084;8.872;2023-03-01T01:09:00;12.35;;;9.70;;
32186;SDS011;18686;53.084;8.872;2023-03-01T01:11:30;12.50;;;9.77;;
32186;SDS011;18686;53.084;8.872;2023-03-01T01:13:59;12.15;;;10.32;;
32186;SDS011;18686;53.084;8.872;2023-03-01T01:16:29;14.05;;;9.63;;
32186;SDS011;18686;53.084;8.872;2023-03-01T01:18:58;13.63;;;10.40;;
32186;SDS011;18686;53.084;8.872;2023-03-01T01:21:27;12.93;;;10.23;;
32186;SDS011;18686;53.084;8.872;2023-03-01T01:23:56;12.65;;;10.07;;
32186;SDS011;18686;53.084;8.872;2023-03-01T01:26:25;12.07;;;10.40;;
32186;SDS011;18686;53.084;8.872;2023-03-01T01:28:55;13.23;;;10.25;;
32186;SDS011;18686;53.084;8.872;2023-03-01T01:31:24;13.45;;;10.15;;
32186;SDS011;18686;53.084;8.872;2023-03-01T01:33:54;11.82;;;9.38;;
32186;SDS011;18686;53.084;8.872;2023-03-01T01:36:23;11.98;;;10.60;;
32186;SDS011;18686;53.084;8.872;2023-03-01T01:38:51;13.00;;;10.57;;
32186;SDS011;18686;53.084;8.872;2023-03-01T01:41:19;11.65;;;10.38;;
32186;SDS011;18686;53.084;8.872;2023-03-01T01:44:09;13.25;;;11.02;;
32186;SDS011;18686;53.084;8.872;2023-03-01T01:46:40;12.45;;;10.10;;
32186;SDS011;18686;53.084;8.872;2023-03-01T01:49:14;13.02;;;9.98;;
32186;SDS011;18686;53.084;8.872;2023-03-01T01:51:54;12.48;;;10.52;;
32186;SDS011;18686;53.084;8.872;2023-03-01T01:54:27;12.95;;;10.43;;
32186;SDS011;18686;53.084;8.872;2023-03-01T01:56:59;14.15;;;10.75;;
32186;SDS011;18686;53.084;8.872;2023-03-01T01:59:30;12.27;;;10.48;;
32186;SDS011;18686;53.084;8.872;2023-03-01T02:02:01;12.43;;;10.15;;
32186;SDS011;18686;53.084;8.872;2023-03-01T02:04:33;12.30;;;10.70;;
32186;SDS011;18686;53.084;8.872;2023-03-01T02:07:01;13.88;;;10.30;;
32186;SDS011;18686;53.084;8.872;2023-03-01T02:09:34;10.88;;;9.73;;
32186;SDS011;18686;53.084;8.872;2023-03-01T02:12:03;12.55;;;10.27;;
32186;SDS011;18686;53.084;8.872;2023-03-01T02:14:33;10.90;;;9.73;;
32186;SDS011;18686;53.084;8.872;2023-03-01T02:17:02;12.13;;;10.13;;
32186;SDS011;18686;53.084;8.872;2023-03-01T02:19:41;10.73;;;9.63;;
32186;SDS011;18686;53.084;8.872;2023-03-01T02:22:18;11.60;;;9.82;;
32186;SDS011;18686;53.084;8.872;2023-03-01T02:24:56;12.40;;;10.07;;
32186;SDS011;18686;53.084;8.872;2023-03-01T02:27:36;12.65;;;10.23;;
32186;SDS011;18686;53.084;8.872;2023-03-01T02:30:10;13.73;;;9.30;;
32186;SDS011;18686;53.084;8.872;2023-03-01T02:32:39;12.63;;;10.32;;
32186;SDS011;18686;53.084;8.872;2023-03-01T02:35:09;12.18;;;9.95;;
32186;SDS011;18686;53.084;8.872;2023-03-01T02:37:40;12.55;;;10.55;;
32186;SDS011;18686;53.084;8.872;2023-03-01T02:40:10;20.52;;;16.17;;
32186;SDS011;18686;53.084;8.872;2023-03-01T02:42:45;33.35;;;25.50;;
32186;SDS011;18686;53.084;8.872;2023-03-01T02:47:46;17.45;;;14.55;;
32186;SDS011;18686;53.084;8.872;2023-03-01T02:50:18;13.63;;;11.65;;
32186;SDS011;18686;53.084;8.872;2023-03-01T02:53:04;13.70;;;11.00;;
32186;SDS011;18686;53.084;8.872;2023-03-01T02:55:37;14.05;;;11.43;;
32186;SDS011;18686;53.084;8.872;2023-03-01T02:58:06;14.27;;;10.55;;
32186;SDS011;18686;53.084;8.872;2023-03-01T03:00:37;14.98;;;10.73;;
32186;SDS011;18686;53.084;8.872;2023-03-01T03:03:15;12.00;;;10.18;;
32186;SDS011;18686;53.084;8.872;2023-03-01T03:05:44;11.98;;;10.15;;
32186;SDS011;18686;53.084;8.872;2023-03-01T03:08:12;12.35;;;11.05;;
32186;SDS011;18686;53.084;8.872;2023-03-01T03:10:42;14.43;;;11.30;;
32186;SDS011;18686;53.084;8.872;2023-03-01T03:13:11;12.10;;;10.77;;
32186;SDS011;18686;53.084;8.872;2023-03-01T03:15:43;13.23;;;11.18;;
32186;SDS011;18686;53.084;8.872;2023-03-01T03:18:12;12.80;;;10.38;;
32186;SDS011;18686;53.084;8.872;2023-03-01T03:20:43;12.50;;;10.70;;
32186;SDS011;18686;53.084;8.872;2023-03-01T03:23:11;12.70;;;10.30;;
32186;SDS011;18686;53.084;8.872;2023-03-01T03:25:40;12.13;;;10.18;;
32186;SDS011;18686;53.084;8.872;2023-03-01T03:28:08;12.70;;;10.43;;
32186;SDS011;18686;53.084;8.872;2023-03-01T03:30:38;12.65;;;9.32;;
32186;SDS011;18686;53.084;8.872;2023-03-01T03:33:09;10.55;;;9.43;;
32186;SDS011;18686;53.084;8.872;2023-03-01T03:35:40;11.60;;;10.25;;
32186;SDS011;18686;53.084;8.872;2023-03-01T03:38:10;10.95;;;9.50;;
32186;SDS011;18686;53.084;8.872;2023-03-01T03:40:44;13.25;;;11.80;;
32186;SDS011;18686;53.084;8.872;2023-03-01T03:43:14;22.25;;;17.17;;
32186;SDS011;18686;53.084;8.872;2023-03-01T03:45:44;19.30;;;15.63;;
32186;SDS011;18686;53.084;8.872;2023-03-01T03:48:14;16.25;;;13.15;;
32186;SDS011;18686;53.084;8.872;2023-03-01T03:50:47;13.90;;;11.90;;
32186;SDS011;18686;53.084;8.872;2023-03-01T03:53:16;13.68;;;11.15;;
32186;SDS011;18686;53.084;8.872;2023-03-01T03:55:44;12.63;;;10.32;;
32186;SDS011;18686;53.084;8.872;2023-03-01T03:58:15;13.13;;;10.52;;
32186;SDS011;18686;53.084;8.872;2023-03-01T04:00:46;12.82;;;10.50;;
32186;SDS011;18686;53.084;8.872;2023-03-01T04:03:18;12.85;;;10.85;;
32186;SDS011;18686;53.084;8.872;2023-03-01T04:05:47;11.60;;;9.75;;
32186;SDS011;18686;53.084;8.872;2023-03-01T04:08:16;11.50;;;9.85;;
32186;SDS011;18686;53.084;8.872;2023-03-01T04:10:47;12.68;;;10.25;;
32186;SDS011;18686;53.084;8.872;2023-03-01T04:13:18;12.15;;;10.25;;
32186;SDS011;18686;53.084;8.872;2023-03-01T04:15:48;11.55;;;9.95;;
32186;SDS011;18686;53.084;8.872;2023-03-01T04:18:18;12.55;;;10.40;;
32186;SDS011;18686;53.084;8.872;2023-03-01T04:20:49;12.90;;;9.70;;
32186;SDS011;18686;53.084;8.872;2023-03-01T04:23:19;12.13;;;10.25;;
32186;SDS011;18686;53.084;8.872;2023-03-01T04:25:48;12.55;;;10.15;;
32186;SDS011;18686;53.084;8.872;2023-03-01T04:28:20;12.77;;;9.95;;
32186;SDS011;18686;53.084;8.872;2023-03-01T04:30:50;15.52;;;10.82;;
32186;SDS011;18686;53.084;8.872;2023-03-01T04:33:21;13.00;;;10.05;;
32186;SDS011;18686;53.084;8.872;2023-03-01T04:35:49;12.68;;;10.02;;
32186;SDS011;18686;53.084;8.872;2023-03-01T04:38:18;13.80;;;11.48;;
32186;SDS011;18686;53.084;8.872;2023-03-01T04:40:47;17.20;;;12.85;;
32186;SDS011;18686;53.084;8.872;2023-03-01T04:43:16;15.25;;;11.70;;
32186;SDS011;18686;53.084;8.872;2023-03-01T04:45:44;13.82;;;10.80;;
32186;SDS011;18686;53.084;8.872;2023-03-01T04:48:12;13.05;;;10.95;;
32186;SDS011;18686;53.084;8.872;2023-03-01T04:50:42;13.90;;;10.93;;
32186;SDS011;18686;53.084;8.872;2023-03-01T04:53:10;14.25;;;11.07;;
32186;SDS011;18686;53.084;8.872;2023-03-01T04:55:38;12.63;;;10.80;;
32186;SDS011;18686;53.084;8.872;2023-03-01T04:58:07;12.45;;;10.45;;
32186;SDS011;18686;53.084;8.872;2023-03-01T05:00:35;12.45;;;10.60;;
32186;SDS011;18686;53.084;8.872;2023-03-01T05:03:03;14.20;;;10.70;;
32186;SDS011;18686;53.084;8.872;2023-03-01T05:05:32;13.80;;;10.95;;
32186;SDS011;18686;53.084;8.872;2023-03-01T05:08:04;14.30;;;10.88;;
32186;SDS011;18686;53.084;8.872;2023-03-01T05:10:35;13.68;;;11.07;;
32186;SDS011;18686;53.084;8.872;2023-03-01T05:13:05;15.25;;;11.25;;
32186;SDS011;18686;53.084;8.872;2023-03-01T05:15:33;14.73;;;11.18;;
32186;SDS011;18686;53.084;8.872;2023-03-01T05:18:03;14.25;;;11.13;;
32186;SDS011;18686;53.084;8.872;2023-03-01T05:20:33;14.23;;;10.45;;
32186;SDS011;18686;53.084;8.872;2023-03-01T05:23:04;12.27;;;10.98;;
32186;SDS011;18686;53.084;8.872;2023-03-01T05:25:33;12.40;;;10.45;;
32186;SDS011;18686;53.084;8.872;2023-03-01T05:28:07;14.02;;;11.07;;
32186;SDS011;18686;53.084;8.872;2023-03-01T05:30:39;13.52;;;10.93;;
32186;SDS011;18686;53.084;8.872;2023-03-01T05:33:08;13.90;;;10.88;;
32186;SDS011;18686;53.084;8.872;2023-03-01T05:35:40;13.02;;;11.63;;
32186;SDS011;18686;53.084;8.872;2023-03-01T05:38:10;18.15;;;12.20;;
32186;SDS011;18686;53.084;8.872;2023-03-01T05:40:39;14.60;;;12.23;;
32186;SDS011;18686;53.084;8.872;2023-03-01T05:43:08;12.75;;;11.20;;
32186;SDS011;18686;53.084;8.872;2023-03-01T05:45:38;13.38;;;11.52;;
32186;SDS011;18686;53.084;8.872;2023-03-01T05:48:07;15.10;;;11.75;;
32186;SDS011;18686;53.084;8.872;2023-03-01T05:50:38;13.80;;;10.93;;
32186;SDS011;18686;53.084;8.872;2023-03-01T05:53:10;13.55;;;11.02;;
32186;SDS011;18686;53.084;8.872;2023-03-01T05:55:40;14.32;;;11.35;;
32186;SDS011;18686;53.084;8.872;2023-03-01T05:58:10;12.50;;;10.95;;
32186;SDS011;18686;53.084;8.872;2023-03-01T06:00:40;14.65;;;11.73;;
32186;SDS011;18686;53.084;8.872;2023-03-01T06:03:09;12.73;;;10.88;;
32186;SDS011;18686;53.084;8.872;2023-03-01T06:05:39;15.27;;;11.43;;
32186;SDS011;18686;53.084;8.872;2023-03-01T06:08:08;15.52;;;11.52;;
32186;SDS011;18686;53.084;8.872;2023-03-01T06:10:40;14.43;;;11.18;;
32186;SDS011;18686;53.084;8.872;2023-03-01T06:13:08;12.75;;;10.65;;
32186;SDS011;18686;53.084;8.872;2023-03-01T06:15:37;13.10;;;10.65;;
32186;SDS011;18686;53.084;8.872;2023-03-01T06:18:05;16.38;;;11.60;;
32186;SDS011;18686;53.084;8.872;2023-03-01T06:20:33;18.92;;;12.30;;
32186;SDS011;18686;53.084;8.872;2023-03-01T06:23:01;18.77;;;12.98;;
32186;SDS011;18686;53.084;8.872;2023-03-01T06:25:31;22.30;;;14.00;;
32186;SDS011;18686;53.084;8.872;2023-03-01T06:28:00;27.08;;;13.45;;
32186;SDS011;18686;53.084;8.872;2023-03-01T06:30:28;15.02;;;11.60;;
32186;SDS011;18686;53.084;8.872;2023-03-01T06:32:56;18.15;;;13.65;;
32186;SDS011;18686;53.084;8.872;2023-03-01T06:35:28;18.40;;;13.13;;
32186;SDS011;18686;53.084;8.872;2023-03-01T06:37:57;15.70;;;11.90;;
32186;SDS011;18686;53.084;8.872;2023-03-01T06:40:26;15.60;;;12.18;;
32186;SDS011;18686;53.084;8.872;2023-03-01T06:42:57;13.35;;;11.73;;
32186;SDS011;18686;53.084;8.872;2023-03-01T06:45:25;16.48;;;12.00;;
32186;SDS011;18686;53.084;8.872;2023-03-01T06:48:00;17.92;;;11.57;;
32186;SDS011;18686;53.084;8.872;2023-03-01T06:50:30;15.45;;;11.98;;
32186;SDS011;18686;53.084;8.872;2023-03-01T06:52:58;17.23;;;12.25;;
32186;SDS011;18686;53.084;8.872;2023-03-01T06:55:27;14.38;;;11.90;;
32186;SDS011;18686;53.084;8.872;2023-03-01T06:57:57;14.18;;;11.77;;
32186;SDS011;18686;53.084;8.872;2023-03-01T07:00:26;17.35;;;12.68;;
32186;SDS011;18686;53.084;8.872;2023-03-01T07:02:57;17.92;;;13.00;;
32186;SDS011;18686;53.084;8.872;2023-03-01T07:05:28;17.85;;;12.38;;
32186;SDS011;18686;53.084;8.872;2023-03-01T07:07:57;16.83;;;12.40;;
32186;SDS011;18686;53.084;8.872;2023-03-01T07:10:25;13.18;;;11.43;;
32186;SDS011;18686;53.084;8.872;2023-03-01T07:12:58;15.68;;;11.32;;
32186;SDS011;18686;53.084;8.872;2023-03-01T07:15:28;15.38;;;11.82;;
32186;SDS011;18686;53.084;8.872;2023-03-01T07:17:56;15.85;;;11.73;;
32186;SDS011;18686;53.084;8.872;2023-03-01T07:20:24;14.15;;;10.95;;
32186;SDS011;18686;53.084;8.872;2023-03-01T07:22:53;13.43;;;10.82;;
32186;SDS011;18686;53.084;8.872;2023-03-01T07:25:22;14.48;;;10.85;;
32186;SDS011;18686;53.084;8.872;2023-03-01T07:27:51;15.93;;;11.05;;
32186;SDS011;18686;53.084;8.872;2023-03-01T07:30:21;16.00;;;10.95;;
32186;SDS011;18686;53.084;8.872;2023-03-01T07:32:52;15.00;;;11.13;;
32186;SDS011;18686;53.084;8.872;2023-03-01T07:35:21;17.58;;;11.63;;
32186;SDS011;18686;53.084;8.872;2023-03-01T07:37:50;16.48;;;11.15;;
32186;SDS011;18686;53.084;8.872;2023-03-01T07:40:19;15.85;;;10.77;;
32186;SDS011;18686;53.084;8.872;2023-03-01T07:42:47;14.30;;;10.23;;
32186;SDS011;18686;53.084;8.872;2023-03-01T07:45:15;14.50;;;10.50;;
32186;SDS011;18686;53.084;8.872;2023-03-01T07:47:45;17.23;;;11.80;;
32186;SDS011;18686;53.084;8.872;2023-03-01T07:50:13;18.27;;;11.40;;
32186;SDS011;18686;53.084;8.872;2023-03-01T07:52:41;19.85;;;11.57;;
32186;SDS011;18686;53.084;8.872;2023-03-01T07:55:12;15.57;;;11.50;;
32186;SDS011;18686;53.084;8.872;2023-03-01T07:57:41;18.83;;;11.73;;
32186;SDS011;18686;53.084;8.872;2023-03-01T08:00:09;19.95;;;11.32;;
32186;SDS011;18686;53.084;8.872;2023-03-01T08:02:39;19.45;;;11.88;;
32186;SDS011;18686;53.084;8.872;2023-03-01T08:05:09;16.35;;;10.88;;
32186;SDS011;18686;53.084;8.872;2023-03-01T08:07:38;18.95;;;10.77;;
32186;SDS011;18686;53.084;8.872;2023-03-01T08:10:06;19.50;;;11.57;;
32186;SDS011;18686;53.084;8.872;2023-03-01T08:12:36;21.92;;;10.82;;
32186;SDS011;18686;53.084;8.872;2023-03-01T08:15:08;23.90;;;11.98;;
32186;SDS011;18686;53.084;8.872;2023-03-01T08:17:37;18.42;;;10.60;;
32186;SDS011;18686;53.084;8.872;2023-03-01T08:20:06;20.83;;;10.65;;
32186;SDS011;18686;53.084;8.872;2023-03-01T08:22:40;15.73;;;10.00;;
32186;SDS011;18686;53.084;8.872;2023-03-01T08:25:08;22.00;;;10.25;;
32186;SDS011;18686;53.084;8.872;2023-03-01T08:27:37;17.55;;;10.95;;
32186;SDS011;18686;53.084;8.872;2023-03-01T08:30:06;21.75;;;10.20;;
32186;SDS011;18686;53.084;8.872;2023-03-01T08:32:36;17.70;;;10.13;;
32186;SDS011;18686;53.084;8.872;2023-03-01T08:35:05;16.33;;;10.10;;
32186;SDS011;18686;53.084;8.872;2023-03-01T08:37:34;15.05;;;8.82;;
32186;SDS011;18686;53.084;8.872;2023-03-01T08:40:04;15.10;;;9.18;;
32186;SDS011;18686;53.084;8.872;2023-03-01T08:42:36;16.52;;;9.10;;
32186;SDS011;18686;53.084;8.872;2023-03-01T08:45:05;14.65;;;8.10;;
32186;SDS011;18686;53.084;8.872;2023-03-01T08:47:33;13.70;;;7.88;;
32186;SDS011;18686;53.084;8.872;2023-03-01T08:50:02;16.80;;;8.15;;
32186;SDS011;18686;53.084;8.872;2023-03-01T08:52:31;13.73;;;8.80;;
32186;SDS011;18686;53.084;8.872;2023-03-01T08:55:00;10.82;;;6.95;;
32186;SDS011;18686;53.084;8.872;2023-03-01T09:00:32;12.52;;;6.97;;
32186;SDS011;18686;53.084;8.872;2023-03-01T09:03:02;10.82;;;6.18;;
32186;SDS011;18686;53.084;8.872;2023-03-01T09:05:30;14.38;;;6.50;;
32186;SDS011;18686;53.084;8.872;2023-03-01T09:07:59;10.35;;;6.20;;
32186;SDS011;18686;53.084;8.872;2023-03-01T09:10:27;11.25;;;7.22;;
32186;SDS011;18686;53.084;8.872;2023-03-01T09:12:56;13.18;;;7.00;;
32186;SDS011;18686;53.084;8.872;2023-03-01T09:15:24;10.95;;;6.60;;
32186;SDS011;18686;53.084;8.872;2023-03-01T09:17:54;10.23;;;5.93;;
32186;SDS011;18686;53.084;8.872;2023-03-01T09:20:22;10.75;;;6.60;;
32186;SDS011;18686;53.084;8.872;2023-03-01T09:22:51;11.55;;;5.60;;
32186;SDS011;18686;53.084;8.872;2023-03-01T09:25:19;8.60;;;6.60;;
32186;SDS011;18686;53.084;8.872;2023-03-01T09:27:47;13.82;;;6.25;;
32186;SDS011;18686;53.084;8.872;2023-03-01T09:30:15;7.75;;;5.28;;
32186;SDS011;18686;53.084;8.872;2023-03-01T09:32:44;8.93;;;5.50;;
32186;SDS011;18686;53.084;8.872;2023-03-01T09:35:14;9.23;;;5.40;;
32186;SDS011;18686;53.084;8.872;2023-03-01T09:37:42;7.63;;;4.82;;
32186;SDS011;18686;53.084;8.872;2023-03-01T09:40:12;5.22;;;4.10;;
32186;SDS011;18686;53.084;8.872;2023-03-01T09:42:47;6.63;;;4.10;;
32186;SDS011;18686;53.084;8.872;2023-03-01T09:45:24;6.03;;;3.95;;
32186;SDS011;18686;53.084;8.872;2023-03-01T09:47:56;5.53;;;3.38;;
32186;SDS011;18686;53.084;8.872;2023-03-01T09:50:27;5.47;;;3.17;;
32186;SDS011;18686;53.084;8.872;2023-03-01T09:53:00;5.30;;;2.33;;
32186;SDS011;18686;53.084;8.872;2023-03-01T09:55:31;3.90;;;2.63;;
32186;SDS011;18686;53.084;8.872;2023-03-01T09:58:06;3.78;;;2.42;;
32186;SDS011;18686;53.084;8.872;2023-03-01T10:01:04;3.55;;;2.20;;
32186;SDS011;18686;53.084;8.872;2023-03-01T10:03:56;3.00;;;2.28;;
32186;SDS011;18686;53.084;8.872;2023-03-01T10:06:33;3.25;;;1.92;;
32186;SDS011;18686;53.084;8.872;2023-03-01T10:09:02;2.90;;;1.83;;
32186;SDS011;18686;53.084;8.872;2023-03-01T10:11:38;2.60;;;1.67;;
32186;SDS011;18686;53.084;8.872;2023-03-01T10:14:15;2.50;;;2.25;;
32186;SDS011;18686;53.084;8.872;2023-03-01T10:16:53;3.15;;;2.10;;
32186;SDS011;18686;53.084;8.872;2023-03-01T10:19:29;2.88;;;1.80;;
32186;SDS011;18686;53.084;8.872;2023-03-01T10:22:03;3.05;;;2.38;;
32186;SDS011;18686;53.084;8.872;2023-03-01T10:24:37;5.18;;;2.72;;
32186;SDS011;18686;53.084;8.872;2023-03-01T10:27:05;4.38;;;2.42;;
32186;SDS011;18686;53.084;8.872;2023-03-01T10:29:42;4.25;;;2.83;;
32186;SDS011;18686;53.084;8.872;2023-03-01T10:32:16;2.85;;;2.55;;
32186;SDS011;18686;53.084;8.872;2023-03-01T10:34:45;2.88;;;2.58;;
32186;SDS011;18686;53.084;8.872;2023-03-01T10:37:17;3.00;;;2.00;;
32186;SDS011;18686;53.084;8.872;2023-03-01T10:42:25;5.90;;;4.00;;
32186;SDS011;18686;53.084;8.872;2023-03-01T10:44:56;3.30;;;2.72;;
32186;SDS011;18686;53.084;8.872;2023-03-01T10:47:25;4.78;;;3.20;;
32186;SDS011;18686;53.084;8.872;2023-03-01T10:49:58;4.28;;;3.08;;
32186;SDS011;18686;53.084;8.872;2023-03-01T10:52:34;3.50;;;3.20;;
32186;SDS011;18686;53.084;8.872;2023-03-01T10:55:04;4.25;;;3.15;;
32186;SDS011;18686;53.084;8.872;2023-03-01T10:57:54;4.60;;;3.63;;
32186;SDS011;18686;53.084;8.872;2023-03-01T11:00:44;4.35;;;3.47;;
32186;SDS011;18686;53.084;8.872;2023-03-01T11:03:16;3.15;;;2.85;;
32186;SDS011;18686;53.084;8.872;2023-03-01T11:08:31;5.30;;;3.75;;
32186;SDS011;18686;53.084;8.872;2023-03-01T11:11:05;5.25;;;3.55;;
32186;SDS011;18686;53.084;8.872;2023-03-01T11:13:46;3.78;;;3.38;;
32186;SDS011;18686;53.084;8.872;2023-03-01T11:16:22;3.17;;;2.90;;
32186;SDS011;18686;53.084;8.872;2023-03-01T11:19:03;6.20;;;3.92;;
32186;SDS011;18686;53.084;8.872;2023-03-01T11:21:44;3.53;;;3.22;;
32186;SDS011;18686;53.084;8.872;2023-03-01T11:24:25;5.20;;;4.22;;
32186;SDS011;18686;53.084;8.872;2023-03-01T11:26:57;5.20;;;4.70;;
32186;SDS011;18686;53.084;8.872;2023-03-01T11:29:31;4.53;;;3.50;;
32186;SDS011;18686;53.084;8.872;2023-03-01T11:32:13;4.50;;;4.10;;
32186;SDS011;18686;53.084;8.872;2023-03-01T11:34:43;2.58;;;2.22;;
32186;SDS011;18686;53.084;8.872;2023-03-01T11:37:19;5.53;;;3.38;;
32186;SDS011;18686;53.084;8.872;2023-03-01T11:39:55;4.28;;;3.67;;
32186;SDS011;18686;53.084;8.872;2023-03-01T11:42:37;5.80;;;3.90;;
32186;SDS011;18686;53.084;8.872;2023-03-01T11:45:12;4.72;;;3.13;;
32186;SDS011;18686;53.084;8.872;2023-03-01T11:47:44;5.82;;;5.05;;
32186;SDS011;18686;53.084;8.872;2023-03-01T11:50:33;5.18;;;4.07;;
32186;SDS011;18686;53.084;8.872;2023-03-01T11:53:20;4.93;;;4.38;;
32186;SDS011;18686;53.084;8.872;2023-03-01T11:56:16;4.32;;;3.92;;
32186;SDS011;18686;53.084;8.872;2023-03-01T11:59:02;3.35;;;3.05;;
32186;SDS011;18686;53.084;8.872;2023-03-01T12:01:56;3.78;;;3.47;;
32186;SDS011;18686;53.084;8.872;2023-03-01T12:04:54;4.40;;;3.63;;
32186;SDS011;18686;53.084;8.872;2023-03-01T12:07:46;5.05;;;3.47;;
32186;SDS011;18686;53.084;8.872;2023-03-01T12:10:22;4.47;;;3.97;;
32186;SDS011;18686;53.084;8.872;2023-03-01T12:13:12;3.60;;;3.30;;
32186;SDS011;18686;53.084;8.872;2023-03-01T12:16:10;4.82;;;3.65;;
32186;SDS011;18686;53.084;8.872;2023-03-01T12:19:20;3.03;;;2.83;;
32186;SDS011;18686;53.084;8.872;2023-03-01T12:22:09;4.07;;;3.38;;
32186;SDS011;18686;53.084;8.872;2023-03-01T12:27:59;3.65;;;3.35;;
32186;SDS011;18686;53.084;8.872;2023-03-01T12:30:42;3.50;;;2.75;;
32186;SDS011;18686;53.084;8.872;2023-03-01T12:33:21;4.13;;;3.70;;
32186;SDS011;18686;53.084;8.872;2023-03-01T12:36:07;3.55;;;3.25;;
32186;SDS011;18686;53.084;8.872;2023-03-01T12:38:45;4.85;;;4.45;;
32186;SDS011;18686;53.084;8.872;2023-03-01T12:41:23;4.32;;;2.80;;
32186;SDS011;18686;53.084;8.872;2023-03-01T12:44:10;2.72;;;2.50;;
32186;SDS011;18686;53.084;8.872;2023-03-01T12:46:56;4.72;;;3.85;;
32186;SDS011;18686;53.084;8.872;2023-03-01T12:49:38;4.32;;;3.20;;
32186;SDS011;18686;53.084;8.872;2023-03-01T12:52:11;3.90;;;2.83;;
32186;SDS011;18686;53.084;8.872;2023-03-01T12:54:44;4.05;;;3.65;;
32186;SDS011;18686;53.084;8.872;2023-03-01T12:57:15;4.93;;;3.75;;
32186;SDS011;18686;53.084;8.872;2023-03-01T12:59:51;2.40;;;2.10;;
32186;SDS011;18686;53.084;8.872;2023-03-01T13:02:37;3.47;;;2.92;;
32186;SDS011;18686;53.084;8.872;2023-03-01T13:05:23;3.28;;;2.88;;
32186;SDS011;18686;53.084;8.872;2023-03-01T13:07:58;3.83;;;3.25;;
32186;SDS011;18686;53.084;8.872;2023-03-01T13:10:33;5.18;;;3.30;;
32186;SDS011;18686;53.084;8.872;2023-03-01T13:13:14;3.95;;;3.58;;
32186;SDS011;18686;53.084;8.872;2023-03-01T13:15:47;3.47;;;2.90;;
32186;SDS011;18686;53.084;8.872;2023-03-01T13:18:29;4.00;;;3.63;;
32186;SDS011;18686;53.084;8.872;2023-03-01T13:21:02;4.65;;;4.25;;
32186;SDS011;18686;53.084;8.872;2023-03-01T13:23:33;4.43;;;4.03;;
32186;SDS011;18686;53.084;8.872;2023-03-01T13:26:10;3.35;;;3.05;;
32186;SDS011;18686;53.084;8.872;2023-03-01T13:28:51;4.30;;;3.90;;
32186;SDS011;18686;53.084;8.872;2023-03-01T13:34:45;4.47;;;3.97;;
32186;SDS011;18686;53.084;8.872;2023-03-01T13:37:20;5.35;;;4.85;;
32186;SDS011;18686;53.084;8.872;2023-03-01T13:40:00;3.90;;;3.58;;
32186;SDS011;18686;53.084;8.872;2023-03-01T13:42:36;5.22;;;4.43;;
32186;SDS011;18686;53.084;8.872;2023-03-01T13:45:18;4.53;;;3.65;;
32186;SDS011;18686;53.084;8.872;2023-03-01T13:47:49;6.65;;;4.72;;
32186;SDS011;18686;53.084;8.872;2023-03-01T13:50:27;4.57;;;4.18;;
32186;SDS011;18686;53.084;8.872;2023-03-01T13:55:32;4.90;;;4.50;;
32186;SDS011;18686;53.084;8.872;2023-03-01T13:58:13;4.90;;;4.38;;
32186;SDS011;18686;53.084;8.872;2023-03-01T14:00:46;5.50;;;3.95;;
32186;SDS011;18686;53.084;8.872;2023-03-01T14:03:15;5.32;;;4.40;;
32186;SDS011;18686;53.084;8.872;2023-03-01T14:05:57;6.30;;;4.82;;
32186;SDS011;18686;53.084;8.872;2023-03-01T14:08:39;5.25;;;4.70;;
32186;SDS011;18686;53.084;8.872;2023-03-01T14:11:20;8.35;;;6.43;;
32186;SDS011;18686;53.084;8.872;2023-03-01T14:17:34;6.47;;;5.47;;
32186;SDS011;18686;53.084;8.872;2023-03-01T14:20:14;5.65;;;4.97;;
32186;SDS011;18686;53.084;8.872;2023-03-01T14:22:48;9.98;;;6.35;;
32186;SDS011;18686;53.084;8.872;2023-03-01T14:25:21;6.50;;;5.32;;
32186;SDS011;18686;53.084;8.872;2023-03-01T14:27:55;7.78;;;6.38;;
32186;SDS011;18686;53.084;8.872;2023-03-01T14:30:33;8.10;;;6.72;;
32186;SDS011;18686;53.084;8.872;2023-03-01T14:33:04;8.30;;;7.40;;
32186;SDS011;18686;53.084;8.872;2023-03-01T14:35:35;9.45;;;6.95;;
32186;SDS011;18686;53.084;8.872;2023-03-01T14:38:05;7.97;;;6.03;;
32186;SDS011;18686;53.084;8.872;2023-03-01T14:40:33;7.38;;;6.68;;
32186;SDS011;18686;53.084;8.872;2023-03-01T14:43:08;6.75;;;5.90;;
32186;SDS011;18686;53.084;8.872;2023-03-01T14:45:38;7.47;;;5.78;;
32186;SDS011;18686;53.084;8.872;2023-03-01T14:48:06;7.50;;;6.75;;
32186;SDS011;18686;53.084;8.872;2023-03-01T14:50:35;9.63;;;7.70;;
32186;SDS011;18686;53.084;8.872;2023-03-01T14:53:14;10.82;;;9.05;;
32186;SDS011;18686;53.084;8.872;2023-03-01T14:55:46;9.23;;;7.10;;
32186;SDS011;18686;53.084;8.872;2023-03-01T14:58:19;9.10;;;8.02;;
32186;SDS011;18686;53.084;8.872;2023-03-01T15:00:50;8.45;;;7.18;;
32186;SDS011;18686;53.084;8.872;2023-03-01T15:03:23;7.60;;;6.22;;
32186;SDS011;18686;53.084;8.872;2023-03-01T15:05:55;9.38;;;6.90;;
32186;SDS011;18686;53.084;8.872;2023-03-01T15:08:25;7.35;;;6.07;;
32186;SDS011;18686;53.084;8.872;2023-03-01T15:11:01;8.15;;;6.65;;
32186;SDS011;18686;53.084;8.872;2023-03-01T15:13:34;9.10;;;7.35;;
32186;SDS011;18686;53.084;8.872;2023-03-01T15:16:04;7.68;;;6.75;;
32186;SDS011;18686;53.084;8.872;2023-03-01T15:18:35;7.80;;;7.00;;
32186;SDS011;18686;53.084;8.872;2023-03-01T15:21:08;7.30;;;6.60;;
32186;SDS011;18686;53.084;8.872;2023-03-01T15:23:38;8.15;;;7.35;;
32186;SDS011;18686;53.084;8.872;2023-03-01T15:26:17;9.98;;;8.50;;
32186;SDS011;18686;53.084;8.872;2023-03-01T15:28:51;9.30;;;8.27;;